sensor_id;sensor_type;location;lat;lon;timestamp;P1;durP1;ratioP1;P2;durP2;ratioP2
7074;SDS011;3578;51.568;6.932;2023-07-31T00:00:15;4.67;;;2.83;;
7074;SDS011;3578;51.568;6.932;2023-07-31T00:02:42;7.30;;;3.00;;
7074;SDS011;3578;51.568;6.932;2023-07-31T00:05:09;3.40;;;3.10;;
7074;SDS011;3578;51.568;6.932;2023-07-31T00:07:36;4.10;;;3.03;;
7074;SDS011;3578;51.568;6.932;2023-07-31T00:10:05;4.33;;;3.70;;
7074;SDS011;3578;51.568;6.932;2023-07-31T00:12:33;6.90;;;5.70;;
7074;SDS011;3578;51.568;6.932;2023-07-31T00:15:00;9.70;;;7.70;;
7074;SDS011;3578;51.568;6.932;2023-07-31T00:17:27;12.37;;;8.73;;
7074;SDS011;3578;51.568;6.932;2023-07-31T00:19:54;15.03;;;10.87;;
7074;SDS011;3578;51.568;6.932;2023-07-31T00:22:21;19.90;;;11.03;;
7074;SDS011;3578;51.568;6.932;2023-07-31T00:24:48;18.70;;;10.70;;
7074;SDS011;3578;51.568;6.932;2023-07-31T00:27:16;26.13;;;14.07;;
7074;SDS011;3578;51.568;6.932;2023-07-31T00:29:43;28.00;;;15.50;;
7074;SDS011;3578;51.568;6.932;2023-07-31T00:32:11;32.07;;;14.23;;
7074;SDS011;3578;51.568;6.932;2023-07-31T00:34:38;22.60;;;14.30;;
7074;SDS011;3578;51.568;6.932;2023-07-31T00:37:05;35.83;;;15.70;;
7074;SDS011;3578;51.568;6.932;2023-07-31T00:39:33;27.97;;;17.20;;
7074;SDS011;3578;51.568;6.932;2023-07-31T00:42:01;33.50;;;18.70;;
7074;SDS011;3578;51.568;6.932;2023-07-31T00:44:30;34.50;;;21.07;;
7074;SDS011;3578;51.568;6.932;2023-07-31T00:46:58;36.97;;;21.80;;
7074;SDS011;3578;51.568;6.932;2023-07-31T00:49:26;33.73;;;20.07;;
7074;SDS011;3578;51.568;6.932;2023-07-31T00:51:53;41.10;;;21.17;;
7074;SDS011;3578;51.568;6.932;2023-07-31T00:54:22;38.87;;;21.63;;
7074;SDS011;3578;51.568;6.932;2023-07-31T00:56:49;49.50;;;22.07;;
7074;SDS011;3578;51.568;6.932;2023-07-31T00:59:19;38.83;;;21.30;;
7074;SDS011;3578;51.568;6.932;2023-07-31T01:01:47;43.47;;;21.00;;
7074;SDS011;3578;51.568;6.932;2023-07-31T01:04:15;42.67;;;21.47;;
7074;SDS011;3578;51.568;6.932;2023-07-31T01:06:44;51.90;;;20.93;;
7074;SDS011;3578;51.568;6.932;2023-07-31T01:09:17;53.63;;;22.40;;
7074;SDS011;3578;51.568;6.932;2023-07-31T01:11:56;48.67;;;19.77;;
7074;SDS011;3578;51.568;6.932;2023-07-31T01:14:28;39.97;;;18.63;;
7074;SDS011;3578;51.568;6.932;2023-07-31T01:16:56;40.93;;;17.80;;
7074;SDS011;3578;51.568;6.932;2023-07-31T01:19:23;39.03;;;18.50;;
7074;SDS011;3578;51.568;6.932;2023-07-31T01:24:51;42.73;;;15.47;;
7074;SDS011;3578;51.568;6.932;2023-07-31T01:27:29;37.90;;;16.27;;
7074;SDS011;3578;51.568;6.932;2023-07-31T01:30:03;28.13;;;12.90;;
7074;SDS011;3578;51.568;6.932;2023-07-31T01:32:39;32.80;;;13.30;;
7074;SDS011;3578;51.568;6.932;2023-07-31T01:35:08;27.60;;;11.20;;
7074;SDS011;3578;51.568;6.932;2023-07-31T01:37:35;25.20;;;10.70;;
7074;SDS011;3578;51.568;6.932;2023-07-31T01:40:04;32.20;;;10.87;;
7074;SDS011;3578;51.568;6.932;2023-07-31T01:42:34;27.53;;;11.60;;
7074;SDS011;3578;51.568;6.932;2023-07-31T01:45:01;28.10;;;10.30;;
7074;SDS011;3578;51.568;6.932;2023-07-31T01:47:28;29.97;;;10.07;;
7074;SDS011;3578;51.568;6.932;2023-07-31T01:49:55;22.30;;;9.87;;
7074;SDS011;3578;51.568;6.932;2023-07-31T01:52:22;22.13;;;8.40;;
7074;SDS011;3578;51.568;6.932;2023-07-31T01:54:49;21.57;;;9.13;;
7074;SDS011;3578;51.568;6.932;2023-07-31T01:57:16;26.67;;;9.73;;
7074;SDS011;3578;51.568;6.932;2023-07-31T01:59:45;21.83;;;8.67;;
7074;SDS011;3578;51.568;6.932;2023-07-31T02:02:12;25.40;;;8.50;;
7074;SDS011;3578;51.568;6.932;2023-07-31T02:04:39;23.93;;;9.23;;
7074;SDS011;3578;51.568;6.932;2023-07-31T02:07:06;27.27;;;9.20;;
7074;SDS011;3578;51.568;6.932;2023-07-31T02:09:33;25.73;;;7.73;;
7074;SDS011;3578;51.568;6.932;2023-07-31T02:12:00;21.53;;;8.43;;
7074;SDS011;3578;51.568;6.932;2023-07-31T02:14:27;16.87;;;7.57;;
7074;SDS011;3578;51.568;6.932;2023-07-31T02:16:55;26.20;;;8.50;;
7074;SDS011;3578;51.568;6.932;2023-07-31T02:19:22;31.90;;;8.40;;
7074;SDS011;3578;51.568;6.932;2023-07-31T02:21:49;26.57;;;8.37;;
7074;SDS011;3578;51.568;6.932;2023-07-31T02:24:16;26.60;;;8.67;;
7074;SDS011;3578;51.568;6.932;2023-07-31T02:26:43;26.17;;;9.10;;
7074;SDS011;3578;51.568;6.932;2023-07-31T02:29:10;23.80;;;8.80;;
7074;SDS011;3578;51.568;6.932;2023-07-31T02:31:37;19.23;;;8.10;;
7074;SDS011;3578;51.568;6.932;2023-07-31T02:34:05;17.50;;;7.70;;
7074;SDS011;3578;51.568;6.932;2023-07-31T02:36:32;22.43;;;7.70;;
7074;SDS011;3578;51.568;6.932;2023-07-31T02:38:59;23.23;;;7.90;;
7074;SDS011;3578;51.568;6.932;2023-07-31T02:41:26;20.37;;;7.67;;
7074;SDS011;3578;51.568;6.932;2023-07-31T02:43:53;20.23;;;7.73;;
7074;SDS011;3578;51.568;6.932;2023-07-31T02:46:20;27.93;;;7.67;;
7074;SDS011;3578;51.568;6.932;2023-07-31T02:48:49;24.90;;;8.10;;
7074;SDS011;3578;51.568;6.932;2023-07-31T02:51:17;21.57;;;8.60;;
7074;SDS011;3578;51.568;6.932;2023-07-31T02:53:46;17.30;;;7.60;;
7074;SDS011;3578;51.568;6.932;2023-07-31T02:56:13;21.70;;;7.97;;
7074;SDS011;3578;51.568;6.932;2023-07-31T02:58:40;19.27;;;8.30;;
7074;SDS011;3578;51.568;6.932;2023-07-31T03:01:07;28.90;;;8.03;;
7074;SDS011;3578;51.568;6.932;2023-07-31T03:03:34;22.13;;;8.47;;
7074;SDS011;3578;51.568;6.932;2023-07-31T03:06:01;23.93;;;8.93;;
7074;SDS011;3578;51.568;6.932;2023-07-31T03:08:29;28.13;;;9.70;;
7074;SDS011;3578;51.568;6.932;2023-07-31T03:10:56;19.33;;;8.40;;
7074;SDS011;3578;51.568;6.932;2023-07-31T03:13:23;27.60;;;9.20;;
7074;SDS011;3578;51.568;6.932;2023-07-31T03:15:50;22.40;;;9.50;;
7074;SDS011;3578;51.568;6.932;2023-07-31T03:18:17;24.20;;;9.40;;
7074;SDS011;3578;51.568;6.932;2023-07-31T03:20:44;22.60;;;8.73;;
7074;SDS011;3578;51.568;6.932;2023-07-31T03:23:11;27.70;;;9.67;;
7074;SDS011;3578;51.568;6.932;2023-07-31T03:25:41;21.47;;;7.87;;
7074;SDS011;3578;51.568;6.932;2023-07-31T03:28:22;21.70;;;8.07;;
7074;SDS011;3578;51.568;6.932;2023-07-31T03:30:49;19.50;;;7.83;;
7074;SDS011;3578;51.568;6.932;2023-07-31T03:33:17;26.00;;;8.80;;
7074;SDS011;3578;51.568;6.932;2023-07-31T03:35:44;17.47;;;8.40;;
7074;SDS011;3578;51.568;6.932;2023-07-31T03:38:11;19.70;;;8.20;;
7074;SDS011;3578;51.568;6.932;2023-07-31T03:40:39;18.67;;;8.77;;
7074;SDS011;3578;51.568;6.932;2023-07-31T03:43:06;25.83;;;8.30;;
7074;SDS011;3578;51.568;6.932;2023-07-31T03:45:33;22.30;;;9.17;;
7074;SDS011;3578;51.568;6.932;2023-07-31T03:48:01;19.23;;;8.80;;
7074;SDS011;3578;51.568;6.932;2023-07-31T03:50:28;26.00;;;9.03;;
7074;SDS011;3578;51.568;6.932;2023-07-31T03:52:55;21.57;;;9.37;;
7074;SDS011;3578;51.568;6.932;2023-07-31T03:55:22;18.90;;;7.57;;
7074;SDS011;3578;51.568;6.932;2023-07-31T03:57:50;26.07;;;8.23;;
7074;SDS011;3578;51.568;6.932;2023-07-31T04:00:18;26.20;;;8.67;;
7074;SDS011;3578;51.568;6.932;2023-07-31T04:02:45;25.10;;;8.13;;
7074;SDS011;3578;51.568;6.932;2023-07-31T04:05:12;15.00;;;8.00;;
7074;SDS011;3578;51.568;6.932;2023-07-31T04:07:39;24.60;;;8.43;;
7074;SDS011;3578;51.568;6.932;2023-07-31T04:10:06;21.53;;;8.20;;
7074;SDS011;3578;51.568;6.932;2023-07-31T04:12:37;18.80;;;7.87;;
7074;SDS011;3578;51.568;6.932;2023-07-31T04:15:05;20.47;;;8.50;;
7074;SDS011;3578;51.568;6.932;2023-07-31T04:17:33;17.77;;;7.93;;
7074;SDS011;3578;51.568;6.932;2023-07-31T04:20:00;23.60;;;7.80;;
7074;SDS011;3578;51.568;6.932;2023-07-31T04:22:27;19.77;;;8.10;;
7074;SDS011;3578;51.568;6.932;2023-07-31T04:24:54;23.90;;;8.07;;
7074;SDS011;3578;51.568;6.932;2023-07-31T04:27:21;23.33;;;7.70;;
7074;SDS011;3578;51.568;6.932;2023-07-31T04:29:48;25.97;;;7.80;;
7074;SDS011;3578;51.568;6.932;2023-07-31T04:32:17;17.17;;;8.10;;
7074;SDS011;3578;51.568;6.932;2023-07-31T04:34:45;19.73;;;7.77;;
7074;SDS011;3578;51.568;6.932;2023-07-31T04:37:12;15.30;;;8.17;;
7074;SDS011;3578;51.568;6.932;2023-07-31T04:39:39;12.43;;;6.70;;
7074;SDS011;3578;51.568;6.932;2023-07-31T04:42:06;17.93;;;7.47;;
7074;SDS011;3578;51.568;6.932;2023-07-31T04:44:33;14.80;;;7.40;;
7074;SDS011;3578;51.568;6.932;2023-07-31T04:47:00;18.10;;;6.90;;
7074;SDS011;3578;51.568;6.932;2023-07-31T04:49:29;21.33;;;8.03;;
7074;SDS011;3578;51.568;6.932;2023-07-31T04:51:56;17.43;;;8.40;;
7074;SDS011;3578;51.568;6.932;2023-07-31T04:54:22;20.97;;;8.27;;
7074;SDS011;3578;51.568;6.932;2023-07-31T04:56:49;20.00;;;7.30;;
7074;SDS011;3578;51.568;6.932;2023-07-31T04:59:17;23.77;;;8.97;;
7074;SDS011;3578;51.568;6.932;2023-07-31T05:01:44;21.93;;;7.40;;
7074;SDS011;3578;51.568;6.932;2023-07-31T05:04:12;17.53;;;7.63;;
7074;SDS011;3578;51.568;6.932;2023-07-31T05:06:40;18.37;;;7.97;;
7074;SDS011;3578;51.568;6.932;2023-07-31T05:09:08;16.40;;;7.63;;
7074;SDS011;3578;51.568;6.932;2023-07-31T05:11:35;19.13;;;8.77;;
7074;SDS011;3578;51.568;6.932;2023-07-31T05:14:02;17.80;;;9.17;;
7074;SDS011;3578;51.568;6.932;2023-07-31T05:16:29;19.60;;;7.60;;
7074;SDS011;3578;51.568;6.932;2023-07-31T05:18:56;12.50;;;7.27;;
7074;SDS011;3578;51.568;6.932;2023-07-31T05:21:23;20.77;;;7.73;;
7074;SDS011;3578;51.568;6.932;2023-07-31T05:23:51;16.23;;;7.43;;
7074;SDS011;3578;51.568;6.932;2023-07-31T05:26:18;14.33;;;6.93;;
7074;SDS011;3578;51.568;6.932;2023-07-31T05:28:45;20.43;;;8.70;;
7074;SDS011;3578;51.568;6.932;2023-07-31T05:31:12;24.87;;;9.07;;
7074;SDS011;3578;51.568;6.932;2023-07-31T05:33:39;20.10;;;8.30;;
7074;SDS011;3578;51.568;6.932;2023-07-31T05:36:06;25.93;;;8.00;;
7074;SDS011;3578;51.568;6.932;2023-07-31T05:38:34;14.37;;;7.67;;
7074;SDS011;3578;51.568;6.932;2023-07-31T05:41:02;19.43;;;8.77;;
7074;SDS011;3578;51.568;6.932;2023-07-31T05:43:29;14.63;;;8.30;;
7074;SDS011;3578;51.568;6.932;2023-07-31T05:45:56;14.17;;;8.00;;
7074;SDS011;3578;51.568;6.932;2023-07-31T05:48:23;16.00;;;8.63;;
7074;SDS011;3578;51.568;6.932;2023-07-31T05:50:50;16.73;;;9.00;;
7074;SDS011;3578;51.568;6.932;2023-07-31T05:53:17;20.80;;;10.50;;
7074;SDS011;3578;51.568;6.932;2023-07-31T05:55:44;24.27;;;10.80;;
7074;SDS011;3578;51.568;6.932;2023-07-31T05:58:12;24.70;;;10.20;;
7074;SDS011;3578;51.568;6.932;2023-07-31T06:00:39;21.27;;;9.53;;
7074;SDS011;3578;51.568;6.932;2023-07-31T06:03:07;19.67;;;10.80;;
7074;SDS011;3578;51.568;6.932;2023-07-31T06:05:33;17.40;;;9.73;;
7074;SDS011;3578;51.568;6.932;2023-07-31T06:08:00;16.60;;;9.60;;
7074;SDS011;3578;51.568;6.932;2023-07-31T06:10:27;17.70;;;9.60;;
7074;SDS011;3578;51.568;6.932;2023-07-31T06:12:54;22.93;;;10.67;;
7074;SDS011;3578;51.568;6.932;2023-07-31T06:15:23;23.67;;;9.80;;
7074;SDS011;3578;51.568;6.932;2023-07-31T06:17:50;21.60;;;9.93;;
7074;SDS011;3578;51.568;6.932;2023-07-31T06:20:17;18.20;;;9.90;;
7074;SDS011;3578;51.568;6.932;2023-07-31T06:22:44;38.07;;;12.03;;
7074;SDS011;3578;51.568;6.932;2023-07-31T06:25:11;21.37;;;9.87;;
7074;SDS011;3578;51.568;6.932;2023-07-31T06:27:38;28.63;;;11.30;;
7074;SDS011;3578;51.568;6.932;2023-07-31T06:30:06;24.97;;;10.70;;
7074;SDS011;3578;51.568;6.932;2023-07-31T06:32:35;26.53;;;10.20;;
7074;SDS011;3578;51.568;6.932;2023-07-31T06:35:02;25.77;;;10.23;;
7074;SDS011;3578;51.568;6.932;2023-07-31T06:37:29;21.13;;;10.00;;
7074;SDS011;3578;51.568;6.932;2023-07-31T06:39:56;25.13;;;10.60;;
7074;SDS011;3578;51.568;6.932;2023-07-31T06:42:23;22.30;;;9.90;;
7074;SDS011;3578;51.568;6.932;2023-07-31T06:44:50;15.03;;;9.73;;
7074;SDS011;3578;51.568;6.932;2023-07-31T06:47:17;21.23;;;9.77;;
7074;SDS011;3578;51.568;6.932;2023-07-31T06:49:46;15.40;;;9.20;;
7074;SDS011;3578;51.568;6.932;2023-07-31T06:52:13;19.03;;;9.30;;
7074;SDS011;3578;51.568;6.932;2023-07-31T06:54:39;18.13;;;9.50;;
7074;SDS011;3578;51.568;6.932;2023-07-31T06:57:06;13.07;;;8.90;;
7074;SDS011;3578;51.568;6.932;2023-07-31T06:59:33;18.63;;;9.63;;
7074;SDS011;3578;51.568;6.932;2023-07-31T07:02:00;13.57;;;8.93;;
7074;SDS011;3578;51.568;6.932;2023-07-31T07:04:27;13.63;;;9.40;;
7074;SDS011;3578;51.568;6.932;2023-07-31T07:06:55;12.63;;;8.57;;
7074;SDS011;3578;51.568;6.932;2023-07-31T07:09:22;14.23;;;9.20;;
7074;SDS011;3578;51.568;6.932;2023-07-31T07:11:49;19.90;;;9.03;;
7074;SDS011;3578;51.568;6.932;2023-07-31T07:14:16;14.63;;;9.47;;
7074;SDS011;3578;51.568;6.932;2023-07-31T07:16:43;13.13;;;9.00;;
7074;SDS011;3578;51.568;6.932;2023-07-31T07:19:10;15.17;;;8.03;;
7074;SDS011;3578;51.568;6.932;2023-07-31T07:21:37;12.43;;;8.80;;
7074;SDS011;3578;51.568;6.932;2023-07-31T07:24:05;15.67;;;8.60;;
7074;SDS011;3578;51.568;6.932;2023-07-31T07:26:33;14.30;;;7.87;;
7074;SDS011;3578;51.568;6.932;2023-07-31T07:29:00;14.37;;;8.40;;
7074;SDS011;3578;51.568;6.932;2023-07-31T07:31:27;12.50;;;7.90;;
7074;SDS011;3578;51.568;6.932;2023-07-31T07:33:54;16.47;;;8.70;;
7074;SDS011;3578;51.568;6.932;2023-07-31T07:36:22;12.93;;;8.83;;
7074;SDS011;3578;51.568;6.932;2023-07-31T07:38:49;24.93;;;8.63;;
7074;SDS011;3578;51.568;6.932;2023-07-31T07:41:17;14.63;;;7.90;;
7074;SDS011;3578;51.568;6.932;2023-07-31T07:43:44;15.37;;;8.60;;
7074;SDS011;3578;51.568;6.932;2023-07-31T07:46:11;15.57;;;8.43;;
7074;SDS011;3578;51.568;6.932;2023-07-31T07:48:38;12.83;;;8.00;;
7074;SDS011;3578;51.568;6.932;2023-07-31T07:51:05;13.57;;;8.13;;
7074;SDS011;3578;51.568;6.932;2023-07-31T07:53:32;19.00;;;8.10;;
7074;SDS011;3578;51.568;6.932;2023-07-31T07:55:59;13.27;;;8.53;;
7074;SDS011;3578;51.568;6.932;2023-07-31T07:58:27;9.30;;;6.73;;
7074;SDS011;3578;51.568;6.932;2023-07-31T08:00:54;12.00;;;7.70;;
7074;SDS011;3578;51.568;6.932;2023-07-31T08:03:21;9.53;;;6.87;;
7074;SDS011;3578;51.568;6.932;2023-07-31T08:05:48;8.63;;;6.43;;
7074;SDS011;3578;51.568;6.932;2023-07-31T08:08:15;10.40;;;6.50;;
7074;SDS011;3578;51.568;6.932;2023-07-31T08:10:42;8.97;;;5.97;;
7074;SDS011;3578;51.568;6.932;2023-07-31T08:13:10;12.60;;;5.87;;
7074;SDS011;3578;51.568;6.932;2023-07-31T08:15:39;10.37;;;6.73;;
7074;SDS011;3578;51.568;6.932;2023-07-31T08:18:08;7.90;;;5.57;;
7074;SDS011;3578;51.568;6.932;2023-07-31T08:20:35;10.30;;;5.60;;
7074;SDS011;3578;51.568;6.932;2023-07-31T08:23:02;11.03;;;5.40;;
7074;SDS011;3578;51.568;6.932;2023-07-31T08:25:29;7.40;;;4.97;;
7074;SDS011;3578;51.568;6.932;2023-07-31T08:27:56;5.77;;;4.93;;
7074;SDS011;3578;51.568;6.932;2023-07-31T08:30:23;6.43;;;4.50;;
7074;SDS011;3578;51.568;6.932;2023-07-31T08:32:51;9.17;;;4.90;;
7074;SDS011;3578;51.568;6.932;2023-07-31T08:35:18;8.03;;;4.70;;
7074;SDS011;3578;51.568;6.932;2023-07-31T08:37:45;7.47;;;4.97;;
7074;SDS011;3578;51.568;6.932;2023-07-31T08:40:12;8.53;;;5.10;;
7074;SDS011;3578;51.568;6.932;2023-07-31T08:42:45;6.00;;;5.10;;
7074;SDS011;3578;51.568;6.932;2023-07-31T08:45:14;10.30;;;5.23;;
7074;SDS011;3578;51.568;6.932;2023-07-31T08:47:44;9.37;;;5.10;;
7074;SDS011;3578;51.568;6.932;2023-07-31T08:50:14;6.17;;;5.30;;
7074;SDS011;3578;51.568;6.932;2023-07-31T08:52:43;7.60;;;5.60;;
7074;SDS011;3578;51.568;6.932;2023-07-31T08:55:12;9.50;;;6.30;;
7074;SDS011;3578;51.568;6.932;2023-07-31T08:57:39;8.03;;;5.30;;
7074;SDS011;3578;51.568;6.932;2023-07-31T09:00:08;12.73;;;6.30;;
7074;SDS011;3578;51.568;6.932;2023-07-31T09:02:37;8.40;;;5.40;;
7074;SDS011;3578;51.568;6.932;2023-07-31T09:05:11;10.70;;;5.47;;
7074;SDS011;3578;51.568;6.932;2023-07-31T09:07:40;8.27;;;4.73;;
7074;SDS011;3578;51.568;6.932;2023-07-31T09:10:11;7.43;;;4.80;;
7074;SDS011;3578;51.568;6.932;2023-07-31T09:12:38;6.10;;;4.93;;
7074;SDS011;3578;51.568;6.932;2023-07-31T09:15:06;13.23;;;9.93;;
7074;SDS011;3578;51.568;6.932;2023-07-31T09:17:35;5.10;;;4.60;;
7074;SDS011;3578;51.568;6.932;2023-07-31T09:20:17;6.80;;;5.03;;
7074;SDS011;3578;51.568;6.932;2023-07-31T09:22:46;5.00;;;4.60;;
7074;SDS011;3578;51.568;6.932;2023-07-31T09:25:15;16.23;;;6.00;;
7074;SDS011;3578;51.568;6.932;2023-07-31T09:27:47;11.00;;;4.80;;
7074;SDS011;3578;51.568;6.932;2023-07-31T09:30:15;7.33;;;4.97;;
7074;SDS011;3578;51.568;6.932;2023-07-31T09:32:43;6.80;;;5.70;;
7074;SDS011;3578;51.568;6.932;2023-07-31T09:35:19;6.40;;;5.80;;
7074;SDS011;3578;51.568;6.932;2023-07-31T09:37:49;9.17;;;6.30;;
7074;SDS011;3578;51.568;6.932;2023-07-31T09:40:30;7.67;;;6.27;;
7074;SDS011;3578;51.568;6.932;2023-07-31T09:42:58;5.73;;;5.20;;
7074;SDS011;3578;51.568;6.932;2023-07-31T09:45:27;8.53;;;5.20;;
7074;SDS011;3578;51.568;6.932;2023-07-31T09:47:55;6.60;;;5.40;;
7074;SDS011;3578;51.568;6.932;2023-07-31T09:50:24;8.50;;;5.70;;
7074;SDS011;3578;51.568;6.932;2023-07-31T09:52:51;8.50;;;4.90;;
7074;SDS011;3578;51.568;6.932;2023-07-31T09:55:18;7.43;;;5.00;;
7074;SDS011;3578;51.568;6.932;2023-07-31T09:57:46;10.90;;;4.67;;
7074;SDS011;3578;51.568;6.932;2023-07-31T10:00:15;7.50;;;4.77;;
7074;SDS011;3578;51.568;6.932;2023-07-31T10:02:44;6.70;;;5.23;;
7074;SDS011;3578;51.568;6.932;2023-07-31T10:05:13;5.30;;;4.17;;
7074;SDS011;3578;51.568;6.932;2023-07-31T10:07:43;5.67;;;4.77;;
7074;SDS011;3578;51.568;6.932;2023-07-31T10:10:21;5.33;;;4.10;;
7074;SDS011;3578;51.568;6.932;2023-07-31T10:12:49;3.50;;;3.30;;
7074;SDS011;3578;51.568;6.932;2023-07-31T10:15:18;7.07;;;4.37;;
7074;SDS011;3578;51.568;6.932;2023-07-31T10:17:47;4.50;;;4.03;;
7074;SDS011;3578;51.568;6.932;2023-07-31T10:20:15;4.50;;;3.90;;
7074;SDS011;3578;51.568;6.932;2023-07-31T10:22:44;8.30;;;4.00;;
7074;SDS011;3578;51.568;6.932;2023-07-31T10:25:12;3.90;;;3.60;;
7074;SDS011;3578;51.568;6.932;2023-07-31T10:27:41;5.73;;;3.80;;
7074;SDS011;3578;51.568;6.932;2023-07-31T10:30:08;4.73;;;4.03;;
7074;SDS011;3578;51.568;6.932;2023-07-31T10:32:40;5.03;;;3.60;;
7074;SDS011;3578;51.568;6.932;2023-07-31T10:35:09;4.03;;;3.73;;
7074;SDS011;3578;51.568;6.932;2023-07-31T10:37:37;4.70;;;4.30;;
7074;SDS011;3578;51.568;6.932;2023-07-31T10:40:09;5.57;;;5.07;;
7074;SDS011;3578;51.568;6.932;2023-07-31T10:42:45;10.10;;;5.07;;
7074;SDS011;3578;51.568;6.932;2023-07-31T10:45:14;5.10;;;4.67;;
7074;SDS011;3578;51.568;6.932;2023-07-31T10:47:57;5.67;;;4.77;;
7074;SDS011;3578;51.568;6.932;2023-07-31T10:50:26;5.50;;;5.10;;
7074;SDS011;3578;51.568;6.932;2023-07-31T10:52:55;5.87;;;5.27;;
7074;SDS011;3578;51.568;6.932;2023-07-31T10:55:26;6.73;;;4.73;;
7074;SDS011;3578;51.568;6.932;2023-07-31T10:58:00;6.90;;;5.20;;
7074;SDS011;3578;51.568;6.932;2023-07-31T11:00:33;6.13;;;4.97;;
7074;SDS011;3578;51.568;6.932;2023-07-31T11:03:02;7.30;;;5.30;;
7074;SDS011;3578;51.568;6.932;2023-07-31T11:05:44;7.83;;;4.70;;
7074;SDS011;3578;51.568;6.932;2023-07-31T11:08:18;9.13;;;4.50;;
7074;SDS011;3578;51.568;6.932;2023-07-31T11:10:50;5.00;;;4.50;;
7074;SDS011;3578;51.568;6.932;2023-07-31T11:13:31;4.77;;;4.30;;
7074;SDS011;3578;51.568;6.932;2023-07-31T11:16:00;5.73;;;4.87;;
7074;SDS011;3578;51.568;6.932;2023-07-31T11:18:27;5.80;;;4.57;;
7074;SDS011;3578;51.568;6.932;2023-07-31T11:20:54;6.07;;;4.50;;
7074;SDS011;3578;51.568;6.932;2023-07-31T11:23:21;9.63;;;4.17;;
7074;SDS011;3578;51.568;6.932;2023-07-31T11:25:50;7.53;;;4.70;;
7074;SDS011;3578;51.568;6.932;2023-07-31T11:28:18;6.80;;;4.40;;
7074;SDS011;3578;51.568;6.932;2023-07-31T11:30:45;6.33;;;4.73;;
7074;SDS011;3578;51.568;6.932;2023-07-31T11:33:13;9.33;;;5.50;;
7074;SDS011;3578;51.568;6.932;2023-07-31T11:35:41;8.90;;;4.80;;
7074;SDS011;3578;51.568;6.932;2023-07-31T11:38:10;4.97;;;4.17;;
7074;SDS011;3578;51.568;6.932;2023-07-31T11:40:41;4.83;;;4.43;;
7074;SDS011;3578;51.568;6.932;2023-07-31T11:43:10;6.20;;;3.80;;
7074;SDS011;3578;51.568;6.932;2023-07-31T11:45:41;6.20;;;4.57;;
7074;SDS011;3578;51.568;6.932;2023-07-31T11:48:10;4.87;;;4.37;;
7074;SDS011;3578;51.568;6.932;2023-07-31T11:50:47;6.17;;;3.80;;
7074;SDS011;3578;51.568;6.932;2023-07-31T11:53:17;8.27;;;4.00;;
7074;SDS011;3578;51.568;6.932;2023-07-31T11:55:48;5.77;;;4.63;;
7074;SDS011;3578;51.568;6.932;2023-07-31T11:58:16;11.83;;;4.80;;
7074;SDS011;3578;51.568;6.932;2023-07-31T12:00:45;5.47;;;4.50;;
7074;SDS011;3578;51.568;6.932;2023-07-31T12:03:13;4.70;;;4.30;;
7074;SDS011;3578;51.568;6.932;2023-07-31T12:05:40;5.27;;;4.00;;
7074;SDS011;3578;51.568;6.932;2023-07-31T12:08:11;6.53;;;4.63;;
7074;SDS011;3578;51.568;6.932;2023-07-31T12:10:38;6.03;;;4.80;;
7074;SDS011;3578;51.568;6.932;2023-07-31T12:13:07;4.57;;;4.10;;
7074;SDS011;3578;51.568;6.932;2023-07-31T12:15:40;5.40;;;4.87;;
7074;SDS011;3578;51.568;6.932;2023-07-31T12:18:09;6.93;;;4.10;;
7074;SDS011;3578;51.568;6.932;2023-07-31T12:20:40;5.87;;;4.27;;
7074;SDS011;3578;51.568;6.932;2023-07-31T12:23:12;9.50;;;4.70;;
7074;SDS011;3578;51.568;6.932;2023-07-31T12:25:44;4.93;;;4.50;;
7074;SDS011;3578;51.568;6.932;2023-07-31T12:28:11;4.23;;;3.90;;
7074;SDS011;3578;51.568;6.932;2023-07-31T12:30:40;5.00;;;4.20;;
7074;SDS011;3578;51.568;6.932;2023-07-31T12:33:13;5.17;;;4.67;;
7074;SDS011;3578;51.568;6.932;2023-07-31T12:35:42;4.80;;;4.30;;
7074;SDS011;3578;51.568;6.932;2023-07-31T12:38:11;4.73;;;4.37;;
7074;SDS011;3578;51.568;6.932;2023-07-31T12:40:39;6.53;;;4.10;;
7074;SDS011;3578;51.568;6.932;2023-07-31T12:43:07;4.90;;;4.50;;
7074;SDS011;3578;51.568;6.932;2023-07-31T12:45:34;5.90;;;4.80;;
7074;SDS011;3578;51.568;6.932;2023-07-31T12:48:03;5.93;;;3.90;;
7074;SDS011;3578;51.568;6.932;2023-07-31T12:50:30;4.00;;;3.70;;
7074;SDS011;3578;51.568;6.932;2023-07-31T12:52:57;4.20;;;3.80;;
7074;SDS011;3578;51.568;6.932;2023-07-31T12:55:24;5.67;;;4.53;;
7074;SDS011;3578;51.568;6.932;2023-07-31T12:57:51;10.67;;;4.70;;
7074;SDS011;3578;51.568;6.932;2023-07-31T13:00:18;5.00;;;4.13;;
7074;SDS011;3578;51.568;6.932;2023-07-31T13:02:46;4.27;;;3.80;;
7074;SDS011;3578;51.568;6.932;2023-07-31T13:05:14;5.47;;;3.87;;
7074;SDS011;3578;51.568;6.932;2023-07-31T13:07:41;3.90;;;3.10;;
7074;SDS011;3578;51.568;6.932;2023-07-31T13:10:09;4.03;;;3.67;;
7074;SDS011;3578;51.568;6.932;2023-07-31T13:12:36;5.40;;;4.07;;
7074;SDS011;3578;51.568;6.932;2023-07-31T13:15:03;4.83;;;4.07;;
7074;SDS011;3578;51.568;6.932;2023-07-31T13:17:31;3.70;;;3.40;;
7074;SDS011;3578;51.568;6.932;2023-07-31T13:19:58;7.33;;;3.87;;
7074;SDS011;3578;51.568;6.932;2023-07-31T13:22:27;4.00;;;3.43;;
7074;SDS011;3578;51.568;6.932;2023-07-31T13:24:54;4.03;;;3.53;;
7074;SDS011;3578;51.568;6.932;2023-07-31T13:27:21;5.27;;;4.03;;
7074;SDS011;3578;51.568;6.932;2023-07-31T13:29:49;4.90;;;4.40;;
7074;SDS011;3578;51.568;6.932;2023-07-31T13:32:17;4.03;;;3.63;;
7074;SDS011;3578;51.568;6.932;2023-07-31T13:34:45;5.10;;;3.80;;
7074;SDS011;3578;51.568;6.932;2023-07-31T13:37:13;5.20;;;3.70;;
7074;SDS011;3578;51.568;6.932;2023-07-31T13:39:42;6.60;;;4.27;;
7074;SDS011;3578;51.568;6.932;2023-07-31T13:42:09;3.80;;;3.50;;
7074;SDS011;3578;51.568;6.932;2023-07-31T13:44:37;4.13;;;3.53;;
7074;SDS011;3578;51.568;6.932;2023-07-31T13:47:04;5.03;;;3.80;;
7074;SDS011;3578;51.568;6.932;2023-07-31T13:49:32;5.97;;;4.17;;
7074;SDS011;3578;51.568;6.932;2023-07-31T13:51:59;8.60;;;4.47;;
7074;SDS011;3578;51.568;6.932;2023-07-31T13:54:26;6.73;;;3.80;;
7074;SDS011;3578;51.568;6.932;2023-07-31T13:56:55;4.90;;;4.00;;
7074;SDS011;3578;51.568;6.932;2023-07-31T13:59:22;5.00;;;4.47;;
7074;SDS011;3578;51.568;6.932;2023-07-31T14:01:49;4.20;;;3.80;;
7074;SDS011;3578;51.568;6.932;2023-07-31T14:04:16;11.43;;;3.93;;
7074;SDS011;3578;51.568;6.932;2023-07-31T14:06:44;7.03;;;4.23;;
7074;SDS011;3578;51.568;6.932;2023-07-31T14:09:13;5.70;;;3.93;;
7074;SDS011;3578;51.568;6.932;2023-07-31T14:11:40;4.67;;;4.03;;
7074;SDS011;3578;51.568;6.932;2023-07-31T14:14:09;6.40;;;4.50;;
7074;SDS011;3578;51.568;6.932;2023-07-31T14:16:37;5.10;;;4.30;;
7074;SDS011;3578;51.568;6.932;2023-07-31T14:19:04;7.87;;;4.10;;
7074;SDS011;3578;51.568;6.932;2023-07-31T14:21:32;4.83;;;4.27;;
7074;SDS011;3578;51.568;6.932;2023-07-31T14:23:59;7.13;;;4.30;;
7074;SDS011;3578;51.568;6.932;2023-07-31T14:26:26;7.20;;;4.70;;
7074;SDS011;3578;51.568;6.932;2023-07-31T14:28:53;5.97;;;4.50;;
7074;SDS011;3578;51.568;6.932;2023-07-31T14:31:21;5.23;;;4.73;;
7074;SDS011;3578;51.568;6.932;2023-07-31T14:33:48;9.90;;;4.60;;
7074;SDS011;3578;51.568;6.932;2023-07-31T14:36:15;6.97;;;4.60;;
7074;SDS011;3578;51.568;6.932;2023-07-31T14:38:42;5.57;;;4.10;;
7074;SDS011;3578;51.568;6.932;2023-07-31T14:41:09;5.27;;;3.87;;
7074;SDS011;3578;51.568;6.932;2023-07-31T14:43:36;5.37;;;4.33;;
7074;SDS011;3578;51.568;6.932;2023-07-31T14:46:04;5.43;;;4.47;;
7074;SDS011;3578;51.568;6.932;2023-07-31T14:48:32;5.10;;;4.60;;
7074;SDS011;3578;51.568;6.932;2023-07-31T14:50:59;5.10;;;4.60;;
7074;SDS011;3578;51.568;6.932;2023-07-31T14:53:26;5.97;;;4.33;;
7074;SDS011;3578;51.568;6.932;2023-07-31T14:55:53;5.80;;;4.57;;
7074;SDS011;3578;51.568;6.932;2023-07-31T14:58:20;4.80;;;4.40;;
7074;SDS011;3578;51.568;6.932;2023-07-31T15:00:48;5.10;;;4.70;;
7074;SDS011;3578;51.568;6.932;2023-07-31T15:03:14;7.03;;;5.07;;
7074;SDS011;3578;51.568;6.932;2023-07-31T15:05:43;5.50;;;5.00;;
7074;SDS011;3578;51.568;6.932;2023-07-31T15:08:10;5.43;;;4.83;;
7074;SDS011;3578;51.568;6.932;2023-07-31T15:10:37;4.97;;;4.53;;
7074;SDS011;3578;51.568;6.932;2023-07-31T15:13:04;5.20;;;4.70;;